Villabona, Spain
Current Conditions -  °F | °C
As of 8:30 AM on Sunday 23 Nov 2014 (Local Time) from LESO Reporting Station
Clear Clear  
Wind Chill: 22°   Ceiling: Unl
Heat Index: 22°   Visibility: 6mi
Dew Point:   Wind: 7mph
Humidity: 35%   Direction: 150°SSE
Pressure: 29.83"   Gusts: 22mph
Location:  43.19°N, 2.05°W
Report Text: LESO 230730Z 15006G19KT 090V200 CAVOK 22/06 Q1010
Loading
Personal Weather Stations






























Interactive Weather Map New forecast layout! Learn more

10-Day Weather Forecast

Advertisements
Track Severe Weather on mobile